Terminal Aerodrome Forecast
Issued by NWS

Home | Current Version | Previous Version | Graphics & Text | Print | Product List | Glossary On
Versions: 1 2 3 4 5 6 7 8 9 10 11 12 13
140
FTUS43 KUNR 150520
TAFGCC
TAF
KGCC 150520Z 1506/1606 21007KT P6SM FEW250
     FM151600 27010KT P6SM FEW250
     FM151800 31012G22KT P6SM FEW250
     FM160000 22005KT P6SM FEW250
     FM160500 20009KT P6SM SKC=

USA.gov is the U.S. government's official web portal to all federal, state and local government web resources and services.